createdAt,value
2019-02-24T00:01:50.721Z,78.40
2019-02-24T00:05:52.672Z,78.40
2019-02-24T00:09:55.196Z,78.20
2019-02-24T00:13:58.239Z,78.20
2019-02-24T00:18:00.843Z,79.60
2019-02-24T00:22:03.084Z,79.20
2019-02-24T00:26:05.241Z,79.00
2019-02-24T00:30:08.876Z,79.40
2019-02-24T00:34:11.054Z,79.70
2019-02-24T00:38:12.971Z,79.50
2019-02-24T00:42:15.387Z,79.80
2019-02-24T00:46:18.105Z,79.70
2019-02-24T00:50:20.445Z,79.60
2019-02-24T00:54:22.353Z,79.20
2019-02-24T00:58:24.384Z,79.50
2019-02-24T01:02:26.303Z,80.00
2019-02-24T01:06:28.221Z,80.00
2019-02-24T01:10:30.143Z,80.10
2019-02-24T01:14:32.064Z,80.20
2019-02-24T01:18:33.991Z,80.50
2019-02-24T01:22:35.913Z,80.50
2019-02-24T01:26:37.884Z,81.30
2019-02-24T01:30:40.780Z,80.70
2019-02-24T01:34:42.702Z,80.70
2019-02-24T01:38:44.625Z,80.40
2019-02-24T01:42:46.544Z,80.70
2019-02-24T01:46:48.449Z,79.90
2019-02-24T01:50:50.365Z,79.60
2019-02-24T01:54:52.288Z,79.90
2019-02-24T01:58:54.210Z,79.60
2019-02-24T02:02:56.126Z,79.50
2019-02-24T02:06:58.034Z,80.30
2019-02-24T02:10:59.956Z,80.50
2019-02-24T02:15:01.873Z,81.50
2019-02-24T02:19:04.775Z,81.50
2019-02-24T02:23:06.701Z,81.70
2019-02-24T02:27:08.609Z,81.00
2019-02-24T02:31:10.532Z,81.10
2019-02-24T02:35:13.425Z,82.00
2019-02-24T02:39:15.384Z,80.70
2019-02-24T02:43:17.763Z,81.20
2019-02-24T02:47:19.666Z,82.60
2019-02-24T02:51:21.628Z,81.70
2019-02-24T02:55:23.539Z,81.50
2019-02-24T02:59:25.501Z,81.50
2019-02-24T03:03:27.514Z,81.60
2019-02-24T03:07:31.054Z,81.80
2019-02-24T03:11:32.975Z,81.50
2019-02-24T03:15:35.005Z,81.70
2019-02-24T03:19:36.931Z,81.90
2019-02-24T03:23:38.853Z,82.50
2019-02-24T03:27:40.768Z,82.10
2019-02-24T03:31:42.681Z,82.10
2019-02-24T03:35:44.586Z,81.90
2019-02-24T03:39:46.501Z,82.70
2019-02-24T03:43:48.418Z,82.50
2019-02-24T03:47:50.342Z,82.20
2019-02-24T03:51:52.261Z,82.40
2019-02-24T03:55:54.550Z,82.50
2019-02-24T03:59:56.472Z,82.70
2019-02-24T04:03:58.466Z,83.10
2019-02-24T04:08:00.374Z,83.00
2019-02-24T04:12:02.292Z,82.90
2019-02-24T04:16:07.770Z,82.70
2019-02-24T04:20:09.688Z,83.50
2019-02-24T04:24:11.617Z,83.70
2019-02-24T04:28:13.531Z,83.10
2019-02-24T04:32:15.457Z,82.80
2019-02-24T04:36:17.384Z,82.60
2019-02-24T04:40:19.300Z,83.90
2019-02-24T04:44:21.216Z,83.40
2019-02-24T04:48:23.129Z,83.50
2019-02-24T04:52:25.184Z,83.40
2019-02-24T04:56:27.085Z,83.50
2019-02-24T05:00:29.025Z,83.70
2019-02-24T05:04:31.040Z,84.40
2019-02-24T05:08:32.934Z,83.70
2019-02-24T05:12:34.859Z,84.10
2019-02-24T05:16:52.707Z,84.10
2019-02-24T05:20:54.639Z,83.50
2019-02-24T05:24:56.568Z,84.40
2019-02-24T05:28:58.469Z,84.50
2019-02-24T05:33:00.388Z,84.50
2019-02-24T05:37:02.292Z,84.10
2019-02-24T05:41:04.243Z,84.20
2019-02-24T05:45:07.087Z,84.80
2019-02-24T05:49:08.971Z,85.10
2019-02-24T05:53:10.996Z,84.90
2019-02-24T05:57:12.910Z,84.50
2019-02-24T06:01:15.061Z,84.80
2019-02-24T06:05:16.987Z,85.00
2019-02-24T06:09:18.986Z,85.10
2019-02-24T06:13:21.061Z,86.00
2019-02-24T06:17:23.160Z,85.40
2019-02-24T06:21:25.103Z,84.60
2019-02-24T06:25:27.047Z,85.90
2019-02-24T06:29:29.223Z,85.60
2019-02-24T06:33:31.169Z,84.80
2019-02-24T06:37:33.090Z,85.20
2019-02-24T06:41:35.032Z,85.40
2019-02-24T06:45:36.950Z,85.50
2019-02-24T06:49:38.856Z,86.00
2019-02-24T06:53:40.778Z,85.80
2019-02-24T06:57:42.693Z,86.50
2019-02-24T07:01:44.620Z,86.20
2019-02-24T07:05:46.528Z,86.20
2019-02-24T07:09:48.471Z,86.50
2019-02-24T07:13:50.397Z,86.40
2019-02-24T07:17:52.320Z,86.70
2019-02-24T07:21:54.244Z,86.90
2019-02-24T07:25:56.158Z,85.70
2019-02-24T07:29:59.059Z,85.50
2019-02-24T07:34:01.364Z,84.50
2019-02-24T07:38:03.340Z,84.70
2019-02-24T07:42:05.357Z,85.30
2019-02-24T07:46:07.308Z,84.10
2019-02-24T07:50:10.251Z,82.30
2019-02-24T07:54:12.172Z,81.20
2019-02-24T07:58:15.123Z,81.20
2019-02-24T08:02:17.214Z,81.60
2019-02-24T08:06:19.123Z,80.70
2019-02-24T08:10:21.056Z,78.20
2019-02-24T08:14:22.993Z,76.10
2019-02-24T08:18:25.020Z,75.10
2019-02-24T08:22:26.955Z,75.10
2019-02-24T08:26:28.866Z,75.30
2019-02-24T08:30:30.831Z,73.50
2019-02-24T08:34:32.754Z,71.70
2019-02-24T08:38:34.690Z,72.10
2019-02-24T08:42:36.637Z,71.20
2019-02-24T08:46:38.540Z,66.90
2019-02-24T08:50:40.463Z,66.80
2019-02-24T08:54:42.396Z,63.00
2019-02-24T08:58:44.319Z,61.70
2019-02-24T09:02:46.258Z,60.40
2019-02-24T09:06:48.156Z,60.80
2019-02-24T09:10:50.090Z,61.00
2019-02-24T09:14:52.003Z,59.20
2019-02-24T09:18:53.935Z,59.40
2019-02-24T09:22:55.830Z,60.40
2019-02-24T09:26:57.772Z,57.60
2019-02-24T09:31:01.024Z,56.00
2019-02-24T09:35:03.218Z,56.30
2019-02-24T09:39:05.981Z,56.80
2019-02-24T09:43:07.984Z,56.20
2019-02-24T09:47:09.876Z,55.50
2019-02-24T09:51:11.788Z,54.40
2019-02-24T09:55:13.698Z,54.10
2019-02-24T09:59:15.640Z,54.80
2019-02-24T10:03:17.552Z,55.00
2019-02-24T10:07:19.438Z,53.60
2019-02-24T10:11:21.351Z,51.20
2019-02-24T10:15:23.262Z,51.70
2019-02-24T10:19:25.182Z,52.30
2019-02-24T10:23:27.257Z,52.60
2019-02-24T10:27:29.208Z,53.20
2019-02-24T10:31:31.114Z,51.50
2019-02-24T10:35:33.094Z,52.20
2019-02-24T10:39:35.015Z,50.10
2019-02-24T10:43:36.911Z,50.60
2019-02-24T10:47:38.863Z,48.90
2019-02-24T10:51:40.755Z,49.90
2019-02-24T10:55:42.670Z,47.70
2019-02-24T10:59:44.621Z,47.20
2019-02-24T11:03:46.519Z,48.00
2019-02-24T11:07:48.432Z,47.80
2019-02-24T11:11:50.337Z,45.90
2019-02-24T11:15:52.325Z,46.40
2019-02-24T11:19:54.311Z,44.00
2019-02-24T11:23:56.223Z,44.90
2019-02-24T11:27:58.258Z,44.00
2019-02-24T11:32:00.158Z,42.10
2019-02-24T11:36:02.099Z,42.20
2019-02-24T11:40:05.795Z,40.50
2019-02-24T11:44:07.713Z,40.40
2019-02-24T11:48:09.633Z,40.20
2019-02-24T11:52:11.525Z,41.00
2019-02-24T11:56:13.428Z,39.90
2019-02-24T22:54:29.874Z,73.70
2019-02-24T22:58:31.790Z,73.10
2019-02-24T23:02:34.079Z,74.00
2019-02-24T23:06:36.000Z,73.80
2019-02-24T23:10:38.879Z,74.20
2019-02-24T23:14:40.807Z,75.00
2019-02-24T23:18:42.739Z,74.50
2019-02-24T23:22:44.664Z,74.00
2019-02-24T23:26:46.625Z,74.40
2019-02-24T23:30:48.528Z,74.10
2019-02-24T23:34:51.422Z,75.00
2019-02-24T23:38:53.349Z,74.40
2019-02-24T23:42:56.340Z,75.50
2019-02-24T23:46:58.253Z,75.20
2019-02-24T23:51:00.171Z,75.50
2019-02-24T23:55:05.925Z,75.00
2019-02-24T23:59:08.691Z,74.10
